LFOV

Laval-Entrammes Airport

Airport
ICAO code
LFOV
IATA Code
LVA
Summary
ICAO Region
EUR
ICAO Territory
Location

, Pays de la Loire

Serving
Laval
Elevation
330 ft
Coordinates
48° 1' 53" N , 0° 44' 35" W
Metar
Observation
LFOV 280500Z AUTO 23004KT CAVOK 08/07 Q1012
Station
Laval-Entrammes
Date/Time
2022-11-28 05:00:00
Wind direction
230°
Wind speed
04 kts
Lowest cloud amount
clouds and visibility OK
Temperature
8°C
Dew point
7°C
Humidity
93%
QNH
1012 hPa
Weather condition
n/a

Runways

Designator Length Width Surface Rops
15/33 1530 30 ASP No/No

Airport map

Aerial View

SKYbrary Partners:

Safety knowledge contributed by: